Time;durP1;ratioP1;P1;durP2;ratioP2;P2;SDS_P1;SDS_P2;PMS_P1;PMS_P2;Temp;Humidity;BMP_temperature;BMP_pressure;BME280_temperature;BME280_humidity;BME280_pressure;Samples;Min_cycle;Max_cycle;Signal;HPM_P1;HPM_P2
2023/03/31 00:01:19;;;;;;;3.95;1.02;;;15.30;94.40;;;;;;10057999;28;20045;-63
2023/03/31 00:06:16;;;;;;;2.00;1.17;;;15.30;94.50;;;;;;10054796;28;20028;-63
2023/03/31 00:11:07;;;;;;;2.63;1.23;;;15.20;94.60;;;;;;10067380;28;20029;-61
2023/03/31 00:16:07;;;;;;;1.73;0.93;;;15.10;94.60;;;;;;10070643;28;20029;-63
2023/03/31 00:21:27;;;;;;;3.53;1.08;;;15.20;94.60;;;;;;10059082;28;20520;-63
2023/03/31 00:26:18;;;;;;;3.30;1.20;;;15.20;94.80;;;;;;10057055;28;20042;-63
2023/03/31 00:31:09;;;;;;;2.75;1.40;;;15.20;94.70;;;;;;10050076;28;20103;-63
2023/03/31 00:36:00;;;;;;;4.20;1.48;;;15.20;94.80;;;;;;10063892;28;20034;-63
2023/03/31 00:40:51;;;;;;;3.22;1.52;;;15.10;94.90;;;;;;10076110;28;20471;-62
2023/03/31 00:45:42;;;;;;;2.95;2.10;;;15.00;95.20;;;;;;10066531;28;20484;-64
2023/03/31 00:50:39;;;;;;;2.70;1.33;;;14.50;95.80;;;;;;10064685;28;20030;-63
2023/03/31 00:55:35;;;;;;;5.05;1.30;;;14.30;96.10;;;;;;10070497;28;20030;-63
2023/03/31 01:00:25;;;;;;;;;;;14.30;96.30;;;;;;10065133;28;20411;-62
2023/03/31 01:05:26;;;;;;;2.95;1.40;;;14.20;96.70;;;;;;10073896;28;19923;-62
2023/03/31 01:10:17;;;;;;;2.03;1.00;;;14.20;96.80;;;;;;10072814;28;20465;-62
2023/03/31 01:15:08;;;;;;;1.92;1.10;;;14.20;97.00;;;;;;10065035;28;20028;-63
2023/03/31 01:20:14;;;;;;;6.07;1.40;;;14.20;97.10;;;;;;10064927;28;20018;-63
2023/03/31 01:25:07;;;;;;;3.13;1.17;;;14.30;97.30;;;;;;10063438;28;20029;-62
2023/03/31 01:30:41;;;;;;;4.18;1.20;;;14.30;97.40;;;;;;10062985;28;20037;-63
2023/03/31 01:35:31;;;;;;;5.80;2.15;;;14.30;97.70;;;;;;10063337;28;20033;-62
2023/03/31 01:40:48;;;;;;;7.03;2.92;;;14.30;97.60;;;;;;10063033;28;20041;-64
2023/03/31 01:45:51;;;;;;;4.20;1.63;;;14.30;97.70;;;;;;10061741;28;20124;-62
2023/03/31 01:51:07;;;;;;;3.58;1.80;;;14.20;97.90;;;;;;10068995;28;20038;-62
2023/03/31 01:56:27;;;;;;;2.47;1.52;;;14.30;98.10;;;;;;10056175;28;20046;-64
2023/03/31 02:01:34;;;;;;;3.08;1.73;;;14.40;98.30;;;;;;10064755;28;20099;-61
2023/03/31 02:06:33;;;;;;;5.72;1.90;;;14.40;98.20;;;;;;10061074;28;20038;-64
2023/03/31 02:11:25;;;;;;;5.07;1.67;;;14.50;98.50;;;;;;10062171;28;20034;-64
2023/03/31 02:16:23;;;;;;;3.20;1.67;;;14.40;98.40;;;;;;10055941;28;20021;-62
2023/03/31 02:21:15;;;;;;;4.25;1.50;;;14.40;98.40;;;;;;10061983;28;20487;-62
2023/03/31 02:26:12;;;;;;;3.78;1.85;;;14.30;98.70;;;;;;10061209;28;20041;-62
2023/03/31 02:31:06;;;;;;;4.25;1.42;;;14.30;98.90;;;;;;10064561;28;20095;-62
2023/03/31 02:35:58;;;;;;;4.38;1.50;;;14.30;98.90;;;;;;10061643;28;20034;-62
2023/03/31 02:40:50;;;;;;;7.72;1.80;;;14.30;98.90;;;;;;10060969;28;20077;-62
2023/03/31 02:45:48;;;;;;;3.55;2.10;;;14.20;99.10;;;;;;10062702;28;20029;-62
2023/03/31 02:51:00;;;;;;;6.57;1.92;;;14.20;99.20;;;;;;10060778;28;20180;-61
2023/03/31 02:56:11;;;;;;;5.53;1.92;;;14.10;99.40;;;;;;10060448;28;20033;-61
2023/03/31 03:01:46;;;;;;;3.65;1.90;;;14.10;99.40;;;;;;10080328;28;20128;-63
2023/03/31 03:07:08;;;;;;;2.47;1.45;;;14.10;99.60;;;;;;10035955;28;20044;-62
2023/03/31 03:12:10;;;;;;;3.90;1.90;;;14.00;99.80;;;;;;10046378;28;20041;-61
2023/03/31 03:17:14;;;;;;;5.80;2.00;;;13.90;99.70;;;;;;10066353;28;20036;-61
2023/03/31 03:22:04;;;;;;;9.02;1.90;;;13.80;99.90;;;;;;10059205;28;20112;-62
2023/03/31 03:26:55;;;;;;;5.13;2.85;;;13.70;99.90;;;;;;10060733;28;20523;-62
2023/03/31 03:31:46;;;;;;;3.33;1.77;;;13.60;99.90;;;;;;10057405;28;20048;-61
2023/03/31 03:36:37;;;;;;;5.57;2.20;;;13.70;99.90;;;;;;10059749;28;20079;-61
2023/03/31 03:41:28;;;;;;;6.40;2.08;;;13.70;99.90;;;;;;10064891;28;20515;-61
2023/03/31 03:46:18;;;;;;;3.92;2.28;;;13.70;99.90;;;;;;10058766;28;20025;-61
2023/03/31 03:51:09;;;;;;;3.88;2.10;;;13.70;99.90;;;;;;10058996;28;20124;-62
2023/03/31 03:56:00;;;;;;;4.60;2.25;;;13.70;99.90;;;;;;10060383;28;20033;-62
2023/03/31 04:00:51;;;;;;;3.92;2.10;;;13.70;99.90;;;;;;10066816;28;20047;-61
2023/03/31 04:05:41;;;;;;;3.30;2.13;;;13.60;99.90;;;;;;10064161;28;20033;-62
2023/03/31 04:10:32;;;;;;;6.25;2.90;;;13.60;99.90;;;;;;10059831;28;20591;-62
2023/03/31 04:15:22;;;;;;;6.57;2.72;;;13.60;99.90;;;;;;10060488;28;20526;-62
2023/03/31 04:20:13;;;;;;;6.55;2.92;;;13.70;99.90;;;;;;10065614;28;20048;-63
2023/03/31 04:25:13;;;;;;;5.20;2.72;;;13.60;99.90;;;;;;10069130;28;20021;-61
2023/03/31 04:30:04;;;;;;;5.45;3.15;;;13.30;99.90;;;;;;10065572;28;20036;-63
2023/03/31 04:35:02;;;;;;;4.05;2.65;;;13.20;99.90;;;;;;10065189;28;20021;-61
2023/03/31 04:39:53;;;;;;;5.35;3.20;;;13.10;99.90;;;;;;10076119;28;20121;-61
2023/03/31 04:44:44;;;;;;;4.53;2.47;;;13.10;99.90;;;;;;10063485;28;20036;-63
2023/03/31 04:49:35;;;;;;;7.30;2.63;;;13.20;99.90;;;;;;10064496;28;20037;-61
2023/03/31 04:54:26;;;;;;;6.32;3.00;;;13.20;99.90;;;;;;10064773;28;20017;-63
2023/03/31 04:59:16;;;;;;;6.65;3.22;;;13.30;99.90;;;;;;10064974;28;20042;-62
2023/03/31 05:04:08;;;;;;;5.32;3.45;;;13.20;99.90;;;;;;10065588;28;20045;-62
2023/03/31 05:08:59;;;;;;;9.32;2.97;;;13.20;99.90;;;;;;10055580;28;20396;-62
2023/03/31 05:13:49;;;;;;;6.60;2.97;;;13.20;99.90;;;;;;10058914;28;20044;-63
2023/03/31 05:18:41;;;;;;;8.95;3.65;;;13.00;99.90;;;;;;10054455;28;20088;-62
2023/03/31 05:23:31;;;;;;;8.30;2.90;;;13.00;99.90;;;;;;10056921;28;20120;-62
2023/03/31 05:28:22;;;;;;;5.03;3.13;;;13.00;99.90;;;;;;10062810;28;20434;-63
2023/03/31 05:33:13;;;;;;;4.68;2.40;;;13.00;99.90;;;;;;10064383;28;20545;-62
2023/03/31 05:38:04;;;;;;;10.10;3.42;;;13.00;99.90;;;;;;10062334;28;20091;-63
2023/03/31 05:42:55;;;;;;;7.55;3.90;;;13.00;99.90;;;;;;10062828;28;20094;-61
2023/03/31 05:47:45;;;;;;;9.98;3.15;;;12.90;99.90;;;;;;10069309;28;20036;-61
2023/03/31 05:52:36;;;;;;;4.47;2.45;;;12.70;99.90;;;;;;10062291;28;20519;-59
2023/03/31 05:57:27;;;;;;;7.22;2.92;;;12.50;99.90;;;;;;10061023;28;20504;-61
2023/03/31 06:02:17;;;;;;;6.70;3.63;;;12.60;99.90;;;;;;10067856;28;20272;-62
2023/03/31 06:07:09;;;;;;;7.20;2.63;;;12.70;99.90;;;;;;10060081;28;20048;-61
2023/03/31 06:11:59;;;;;;;6.78;3.42;;;12.70;99.90;;;;;;10061457;28;20041;-61
2023/03/31 06:16:50;;;;;;;5.72;2.60;;;12.70;99.90;;;;;;10062255;28;20446;-62
2023/03/31 06:21:40;;;;;;;4.35;2.30;;;12.60;99.90;;;;;;10061288;28;20500;-65
2023/03/31 06:26:31;;;;;;;4.35;2.25;;;12.80;99.90;;;;;;10061199;28;20044;-61
2023/03/31 06:31:23;;;;;;;4.47;2.22;;;12.90;99.90;;;;;;10066484;28;20040;-65
2023/03/31 06:36:17;;;;;;;5.82;2.55;;;13.00;99.90;;;;;;10060833;28;20028;-66
2023/03/31 06:41:10;;;;;;;2.28;1.25;;;13.10;99.90;;;;;;10052430;28;20034;-66
2023/03/31 06:46:01;;;;;;;1.98;1.23;;;13.10;99.90;;;;;;10048063;28;20124;-65
2023/03/31 06:50:57;;;;;;;4.43;1.48;;;13.20;99.90;;;;;;10044030;28;20450;-66
2023/03/31 06:55:48;;;;;;;1.33;0.98;;;13.10;99.90;;;;;;10045846;28;20033;-65
2023/03/31 07:00:39;;;;;;;3.28;1.08;;;13.10;99.90;;;;;;10052593;28;20048;-65
2023/03/31 07:05:30;;;;;;;3.88;1.10;;;13.20;99.90;;;;;;10043894;28;20025;-65
2023/03/31 07:10:22;;;;;;;5.20;1.20;;;13.30;99.90;;;;;;10045181;28;20483;-68
2023/03/31 07:15:13;;;;;;;2.08;0.82;;;13.20;99.90;;;;;;10047914;28;20029;-68
2023/03/31 07:20:08;;;;;;;2.30;0.90;;;13.30;99.90;;;;;;10047055;28;20034;-68
2023/03/31 07:24:59;;;;;;;;;;;13.50;99.90;;;;;;10051068;28;20080;-66
2023/03/31 07:29:50;;;;;;;1.27;0.88;;;13.60;99.90;;;;;;10046334;28;19956;-67
2023/03/31 07:34:41;;;;;;;1.70;1.25;;;13.80;99.90;;;;;;10051104;28;20025;-67
2023/03/31 07:39:31;;;;;;;2.80;1.25;;;13.90;99.90;;;;;;10059555;28;20112;-68
2023/03/31 07:44:22;;;;;;;3.33;1.13;;;14.00;99.90;;;;;;10058996;28;20060;-69
2023/03/31 07:49:14;;;;;;;2.88;1.42;;;13.90;99.90;;;;;;10058726;28;20029;-69
2023/03/31 07:54:05;;;;;;;3.63;1.75;;;14.10;99.90;;;;;;10063480;28;20115;-69
2023/03/31 07:58:56;;;;;;;2.78;1.70;;;14.10;99.90;;;;;;10055273;28;20128;-67
2023/03/31 08:03:47;;;;;;;1.60;1.20;;;14.10;99.90;;;;;;10052894;28;20034;-67
2023/03/31 08:08:41;;;;;;;2.28;1.10;;;14.00;99.90;;;;;;10045749;28;20025;-68
2023/03/31 08:13:32;;;;;;;1.52;1.10;;;14.00;99.90;;;;;;10045139;28;20021;-67
2023/03/31 08:18:23;;;;;;;2.20;1.25;;;14.30;99.90;;;;;;10039713;28;20040;-67
2023/03/31 08:23:13;;;;;;;3.63;1.60;;;14.50;99.90;;;;;;10047525;28;20036;-71
2023/03/31 08:28:05;;;;;;;2.17;1.17;;;14.50;99.90;;;;;;10045069;28;20102;-70
2023/03/31 08:32:56;;;;;;;1.30;1.00;;;14.80;99.90;;;;;;10043798;28;20075;-72
2023/03/31 08:37:46;;;;;;;4.93;0.95;;;15.20;99.90;;;;;;10054344;28;20086;-71
2023/03/31 08:42:51;;;;;;;4.78;1.00;;;15.40;99.90;;;;;;10052513;28;20069;-66
2023/03/31 08:47:44;;;;;;;6.60;1.45;;;15.40;99.90;;;;;;10051080;28;20060;-65
2023/03/31 08:52:51;;;;;;;2.83;1.50;;;15.50;99.90;;;;;;10045411;28;20041;-65
2023/03/31 08:58:19;;;;;;;3.42;1.00;;;15.40;99.90;;;;;;10045623;28;20037;-68
2023/03/31 09:03:22;;;;;;;7.25;1.73;;;15.30;99.90;;;;;;10054598;28;20128;-67
2023/03/31 09:08:32;;;;;;;6.60;1.88;;;15.30;99.90;;;;;;10049031;28;20071;-66
2023/03/31 09:13:43;;;;;;;5.13;1.63;;;15.40;99.90;;;;;;10055388;28;20080;-67
2023/03/31 09:18:37;;;;;;;4.47;1.65;;;15.50;99.90;;;;;;10070144;28;20037;-68
2023/03/31 09:23:52;;;;;;;8.18;2.08;;;15.70;99.90;;;;;;10063640;28;20040;-71
2023/03/31 09:28:44;;;;;;;4.13;1.48;;;16.00;98.90;;;;;;10064032;28;20673;-70
2023/03/31 09:33:42;;;;;;;4.30;1.20;;;16.20;99.00;;;;;;10057354;28;20041;-73
2023/03/31 09:38:33;;;;;;;4.95;2.00;;;16.40;98.80;;;;;;10059526;28;20506;-70
2023/03/31 09:43:26;;;;;;;4.15;2.65;;;16.40;98.40;;;;;;10060204;28;20055;-75
2023/03/31 09:48:21;;;;;;;2.88;1.60;;;16.40;98.50;;;;;;10058140;28;20026;-70
2023/03/31 09:53:26;;;;;;;6.65;1.60;;;16.00;98.30;;;;;;10057469;28;20038;-64
2023/03/31 09:58:17;;;;;;;4.80;1.08;;;15.70;98.40;;;;;;10049766;28;20607;-60
2023/03/31 10:03:13;;;;;;;3.83;1.35;;;15.40;98.40;;;;;;10071776;28;20610;-64
2023/03/31 10:08:13;;;;;;;2.42;0.80;;;15.20;97.90;;;;;;10048923;28;20116;-63
2023/03/31 10:13:09;;;;;;;3.25;0.80;;;14.20;97.90;;;;;;10043408;28;20047;-62
2023/03/31 10:18:00;;;;;;;1.20;0.85;;;12.40;99.90;;;;;;10064527;28;20062;-61
2023/03/31 10:22:50;;;;;;;1.33;0.85;;;11.00;99.90;;;;;;10063795;28;20037;-59
2023/03/31 10:27:45;;;;;;;1.65;0.40;;;10.80;99.90;;;;;;10055835;28;20141;-62
2023/03/31 10:32:41;;;;;;;1.85;0.60;;;11.00;99.90;;;;;;10060199;28;20048;-62
2023/03/31 10:37:35;;;;;;;0.98;0.32;;;11.10;99.90;;;;;;10049410;28;20026;-61
2023/03/31 10:42:27;;;;;;;0.10;0.10;;;11.20;99.90;;;;;;10059096;28;20128;-65
2023/03/31 10:47:20;;;;;;;0.20;0.20;;;11.50;99.90;;;;;;10060428;28;20041;-67
2023/03/31 10:52:21;;;;;;;0.95;0.57;;;11.90;99.90;;;;;;10054035;28;20144;-67
2023/03/31 10:57:11;;;;;;;0.50;0.38;;;12.30;99.90;;;;;;10058261;28;20291;-63
2023/03/31 11:02:35;;;;;;;2.17;0.73;;;12.80;99.90;;;;;;10058878;28;20108;-63
2023/03/31 11:07:38;;;;;;;1.80;0.70;;;13.30;99.90;;;;;;10054705;28;20496;-65
2023/03/31 11:12:48;;;;;;;1.20;0.50;;;13.60;99.90;;;;;;10050669;28;20048;-66
2023/03/31 11:17:48;;;;;;;1.42;0.60;;;13.60;99.90;;;;;;10046406;28;20040;-68
2023/03/31 11:23:05;;;;;;;1.08;0.50;;;13.70;99.90;;;;;;10047759;28;20069;-62
2023/03/31 11:28:23;;;;;;;1.50;0.30;;;13.70;99.90;;;;;;10042626;28;20037;-63
2023/03/31 11:33:26;;;;;;;1.58;0.38;;;13.90;99.90;;;;;;10050708;28;20034;-62
2023/03/31 11:38:49;;;;;;;1.95;1.15;;;14.30;99.90;;;;;;10046358;28;20116;-63
2023/03/31 11:43:51;;;;;;;3.28;0.80;;;14.70;99.90;;;;;;10042317;28;20089;-64
2023/03/31 11:49:00;;;;;;;3.38;0.70;;;14.90;99.90;;;;;;10047286;28;20113;-63
2023/03/31 11:53:53;;;;;;;2.72;0.95;;;14.90;99.90;;;;;;10046377;28;20026;-66
2023/03/31 11:58:51;;;;;;;2.60;0.80;;;14.90;99.90;;;;;;10047477;28;20033;-62
2023/03/31 12:04:19;;;;;;;1.67;0.80;;;14.60;99.90;;;;;;10044958;28;20029;-65
2023/03/31 12:09:26;;;;;;;5.82;1.70;;;13.80;99.90;;;;;;10039949;28;20484;-61
2023/03/31 12:14:28;;;;;;;5.22;1.88;;;12.90;99.90;;;;;;10046886;28;20030;-63
2023/03/31 12:19:27;;;;;;;2.70;0.88;;;12.90;99.90;;;;;;10051288;28;20112;-65
2023/03/31 12:24:18;;;;;;;0.70;0.43;;;12.20;99.90;;;;;;10057097;28;20046;-68
2023/03/31 12:29:24;;;;;;;0.60;0.43;;;12.10;99.90;;;;;;10047802;28;20050;-66
2023/03/31 12:34:18;;;;;;;1.52;0.40;;;12.30;99.90;;;;;;10054488;28;20038;-66
2023/03/31 12:39:27;;;;;;;1.23;0.20;;;12.20;99.90;;;;;;10059463;28;20542;-66
2023/03/31 12:44:33;;;;;;;2.97;0.45;;;11.70;99.90;;;;;;10076621;28;20073;-66
2023/03/31 12:50:08;;;;;;;0.65;0.32;;;11.80;99.90;;;;;;10065007;28;20159;-69
2023/03/31 12:55:20;;;;;;;0.70;0.30;;;12.20;99.90;;;;;;10064227;28;20022;-68
2023/03/31 13:00:24;;;;;;;1.08;0.50;;;12.60;99.90;;;;;;10063974;28;20021;-68
2023/03/31 13:05:37;;;;;;;1.85;1.20;;;13.30;99.90;;;;;;10059925;28;20118;-68
2023/03/31 13:10:30;;;;;;;1.67;0.70;;;13.90;99.90;;;;;;10061762;28;20283;-69
2023/03/31 13:15:23;;;;;;;2.10;0.90;;;14.90;99.90;;;;;;10065011;28;20030;-69
2023/03/31 13:20:26;;;;;;;0.73;0.70;;;16.10;99.90;;;;;;10067462;28;20150;-62
2023/03/31 13:25:28;;;;;;;1.50;0.70;;;17.40;99.90;;;;;;10063181;28;20478;-66
2023/03/31 13:30:37;;;;;;;1.55;0.50;;;18.90;99.90;;;;;;10059302;28;20565;-67
2023/03/31 13:35:32;;;;;;;1.83;0.60;;;19.50;99.00;;;;;;10065621;28;20094;-67
2023/03/31 13:41:00;;;;;;;0.80;0.50;;;21.20;98.50;;;;;;10063039;28;20506;-68
2023/03/31 13:46:17;;;;;;;1.92;0.50;;;20.70;96.60;;;;;;10062349;28;20067;-66
2023/03/31 13:51:14;;;;;;;1.50;0.40;;;18.90;97.80;;;;;;10062565;28;20021;-67
2023/03/31 13:56:14;;;;;;;1.10;0.50;;;18.40;98.00;;;;;;10062357;28;20396;-66
2023/03/31 14:01:38;;;;;;;1.63;0.73;;;18.20;97.80;;;;;;10062428;28;20562;-64
2023/03/31 14:06:47;;;;;;;1.65;0.73;;;17.40;97.60;;;;;;10039907;28;20115;-66
2023/03/31 14:11:38;;;;;;;3.15;0.77;;;18.00;97.20;;;;;;10062721;28;20021;-63
2023/03/31 14:16:33;;;;;;;3.30;1.15;;;17.40;97.50;;;;;;10060596;28;20021;-63
2023/03/31 14:21:33;;;;;;;4.57;1.02;;;16.70;97.80;;;;;;10058527;28;20037;-66
2023/03/31 14:26:38;;;;;;;1.70;0.82;;;16.20;97.80;;;;;;10059487;28;21656;-65
2023/03/31 14:31:40;;;;;;;2.22;0.70;;;16.40;97.50;;;;;;10066049;28;20029;-60
2023/03/31 14:36:47;;;;;;;2.47;0.77;;;16.00;97.80;;;;;;10059342;28;20136;-61
2023/03/31 14:41:37;;;;;;;1.23;0.80;;;15.90;97.70;;;;;;10061091;28;20504;-61
2023/03/31 14:46:31;;;;;;;2.92;0.73;;;15.80;97.60;;;;;;10060563;28;20079;-60
2023/03/31 14:51:29;;;;;;;3.00;0.65;;;15.60;97.60;;;;;;10060829;28;20037;-61
2023/03/31 14:56:27;;;;;;;3.28;1.00;;;15.30;97.60;;;;;;10060071;28;20036;-59
2023/03/31 15:01:27;;;;;;;3.17;0.90;;;15.10;97.80;;;;;;10060332;28;20041;-61
2023/03/31 15:06:18;;;;;;;5.00;1.00;;;15.00;98.10;;;;;;10062817;28;20026;-60
2023/03/31 15:11:14;;;;;;;0.52;0.20;;;14.30;98.00;;;;;;10059683;28;20029;-62
2023/03/31 15:16:29;;;;;;;0.10;0.10;;;11.30;99.90;;;;;;10058776;28;20109;-62
2023/03/31 15:21:24;;;;;;;1.33;0.20;;;10.20;99.90;;;;;;10062572;28;20049;-62
2023/03/31 15:26:17;;;;;;;1.15;0.50;;;9.90;99.90;;;;;;10058518;28;20084;-61
2023/03/31 15:31:08;;;;;;;2.17;0.28;;;10.10;99.90;;;;;;10057872;28;20079;-65
2023/03/31 15:35:59;;;;;;;0.65;0.25;;;10.50;99.90;;;;;;10057417;28;20079;-63
2023/03/31 15:40:55;;;;;;;1.20;0.30;;;11.20;99.90;;;;;;10057642;28;20321;-62
2023/03/31 15:45:57;;;;;;;0.82;0.52;;;11.80;99.90;;;;;;10058181;28;20076;-62
2023/03/31 15:50:49;;;;;;;2.78;0.70;;;12.00;99.90;;;;;;10057474;28;20416;-62
2023/03/31 15:55:41;;;;;;;3.10;1.00;;;12.30;99.90;;;;;;10058079;28;20032;-63
2023/03/31 16:00:46;;;;;;;3.60;0.85;;;12.40;99.90;;;;;;10063876;28;20033;-62
2023/03/31 16:05:48;;;;;;;1.27;0.63;;;12.60;99.90;;;;;;10056714;28;20037;-64
2023/03/31 16:10:39;;;;;;;3.22;0.80;;;12.70;99.90;;;;;;10061243;28;20439;-63
2023/03/31 16:15:39;;;;;;;1.77;0.80;;;12.70;99.90;;;;;;10060146;28;20662;-63
2023/03/31 16:20:44;;;;;;;2.45;0.88;;;12.70;99.90;;;;;;10064649;28;20018;-64
2023/03/31 16:25:39;;;;;;;3.13;1.00;;;12.70;99.90;;;;;;10065647;28;20042;-64
2023/03/31 16:30:35;;;;;;;1.90;0.90;;;12.80;99.90;;;;;;10062420;28;20504;-65
2023/03/31 16:35:35;;;;;;;5.70;0.90;;;12.70;99.90;;;;;;10065075;28;20492;-64
2023/03/31 16:40:27;;;;;;;2.42;0.80;;;12.50;99.90;;;;;;10062389;28;20063;-67
2023/03/31 16:45:20;;;;;;;3.08;1.10;;;12.50;99.90;;;;;;10064271;28;20041;-66
2023/03/31 16:50:10;;;;;;;1.80;0.63;;;12.80;99.90;;;;;;10064259;28;20033;-65
2023/03/31 16:55:05;;;;;;;1.83;0.70;;;12.90;99.90;;;;;;10065098;28;20022;-67
2023/03/31 16:59:55;;;;;;;2.67;1.02;;;13.10;99.90;;;;;;10062736;28;20235;-68
2023/03/31 17:04:46;;;;;;;4.65;1.45;;;13.20;99.90;;;;;;10063245;28;20569;-66
2023/03/31 17:09:37;;;;;;;3.20;0.90;;;13.20;99.90;;;;;;10063232;28;20029;-65
2023/03/31 17:14:27;;;;;;;3.75;1.02;;;13.90;99.90;;;;;;10062750;28;20026;-64
2023/03/31 17:19:18;;;;;;;1.80;0.60;;;13.90;99.90;;;;;;10054465;28;20025;-63
2023/03/31 17:24:09;;;;;;;2.28;0.95;;;13.70;99.90;;;;;;10058131;28;20041;-64
2023/03/31 17:28:59;;;;;;;5.55;1.27;;;13.50;99.90;;;;;;10058270;28;20038;-63
2023/03/31 17:33:50;;;;;;;2.15;0.82;;;13.40;99.90;;;;;;10059379;28;20503;-63
2023/03/31 17:38:41;;;;;;;3.10;0.80;;;13.40;99.90;;;;;;10059623;28;20041;-62
2023/03/31 17:43:32;;;;;;;3.60;0.80;;;13.20;99.90;;;;;;10060249;28;20037;-64
2023/03/31 17:48:22;;;;;;;1.10;0.60;;;13.10;99.90;;;;;;10061248;28;20021;-63
2023/03/31 17:53:13;;;;;;;3.08;0.88;;;13.10;99.90;;;;;;10063023;28;20091;-63
2023/03/31 17:58:05;;;;;;;2.95;0.68;;;13.00;99.90;;;;;;10068936;28;20021;-63
2023/03/31 18:02:55;;;;;;;4.60;0.85;;;13.00;99.90;;;;;;10061647;28;20136;-62
2023/03/31 18:07:46;;;;;;;1.17;0.63;;;12.90;99.90;;;;;;10055567;28;20543;-62
2023/03/31 18:12:37;;;;;;;3.40;1.02;;;12.90;99.90;;;;;;10053896;28;20064;-61
2023/03/31 18:17:27;;;;;;;1.65;0.80;;;12.90;99.90;;;;;;10056383;28;20051;-62
2023/03/31 18:22:18;;;;;;;2.83;0.75;;;12.90;99.90;;;;;;10061202;28;20056;-63
2023/03/31 18:27:08;;;;;;;1.35;0.88;;;12.90;99.90;;;;;;10052804;28;20098;-62
2023/03/31 18:32:00;;;;;;;1.88;0.88;;;12.90;99.90;;;;;;10060031;28;20037;-63
2023/03/31 18:36:52;;;;;;;2.17;0.90;;;12.90;99.90;;;;;;10060444;28;20447;-63
2023/03/31 18:41:47;;;;;;;2.95;1.23;;;12.90;99.90;;;;;;10060727;28;20119;-62
2023/03/31 18:46:38;;;;;;;3.67;1.00;;;12.80;99.90;;;;;;10060137;28;20033;-62
2023/03/31 18:51:28;;;;;;;3.05;1.27;;;12.80;99.90;;;;;;10060433;28;20137;-66
2023/03/31 18:56:19;;;;;;;4.68;1.00;;;12.80;99.90;;;;;;10058799;28;20037;-64
2023/03/31 19:01:09;;;;;;;6.03;1.05;;;12.80;99.90;;;;;;10059050;28;20045;-65
2023/03/31 19:06:03;;;;;;;1.90;1.00;;;12.70;99.90;;;;;;10058958;28;20029;-66
2023/03/31 19:11:09;;;;;;;2.38;1.15;;;12.70;99.90;;;;;;10059462;28;20036;-65
2023/03/31 19:16:00;;;;;;;;;;;12.60;99.90;;;;;;10059959;28;20029;-63
2023/03/31 19:20:51;;;;;;;5.50;1.60;;;12.60;99.90;;;;;;10059521;28;19974;-63
2023/03/31 19:25:41;;;;;;;2.60;0.98;;;12.50;99.90;;;;;;10059884;28;20041;-63
2023/03/31 19:30:33;;;;;;;3.95;0.80;;;12.50;99.90;;;;;;10052667;28;20060;-64
2023/03/31 19:35:25;;;;;;;2.90;1.02;;;12.40;99.90;;;;;;10059281;28;20029;-66
2023/03/31 19:40:16;;;;;;;2.38;1.00;;;12.30;99.90;;;;;;10059674;28;20510;-65
2023/03/31 19:45:07;;;;;;;2.13;0.80;;;12.30;99.90;;;;;;10059232;28;20040;-64
2023/03/31 19:49:58;;;;;;;1.40;0.55;;;12.30;99.90;;;;;;10059643;28;20101;-68
2023/03/31 19:54:49;;;;;;;3.22;1.50;;;12.20;99.90;;;;;;10058037;28;20110;-66
2023/03/31 19:59:40;;;;;;;10.18;2.35;;;12.20;99.90;;;;;;10059993;28;20022;-64
2023/03/31 20:04:31;;;;;;;2.95;1.00;;;12.10;99.90;;;;;;10052320;28;20042;-65
2023/03/31 20:09:24;;;;;;;3.60;1.25;;;12.10;99.90;;;;;;10035860;28;20025;-64
2023/03/31 20:14:15;;;;;;;3.28;0.90;;;12.10;99.90;;;;;;10046831;28;20061;-67
2023/03/31 20:19:06;;;;;;;2.63;0.90;;;12.10;99.90;;;;;;10045853;28;20068;-62
2023/03/31 20:23:57;;;;;;;1.60;0.70;;;12.10;99.90;;;;;;10048807;28;20048;-65
2023/03/31 20:28:48;;;;;;;1.80;0.73;;;12.20;99.90;;;;;;10058720;28;20049;-64
2023/03/31 20:33:40;;;;;;;1.02;0.60;;;12.10;99.90;;;;;;10055173;28;20029;-65
2023/03/31 20:38:33;;;;;;;4.03;0.57;;;12.10;99.90;;;;;;10054426;28;20053;-62
2023/03/31 20:43:24;;;;;;;1.30;0.60;;;12.10;99.90;;;;;;10058044;28;20064;-66
2023/03/31 20:48:15;;;;;;;2.00;0.70;;;12.10;99.90;;;;;;10057435;28;20033;-64
2023/03/31 20:53:06;;;;;;;1.08;0.40;;;12.10;99.90;;;;;;10057345;28;20028;-66
2023/03/31 20:57:57;;;;;;;0.40;0.40;;;12.10;99.90;;;;;;10054539;28;20380;-66
2023/03/31 21:02:47;;;;;;;4.22;1.05;;;12.00;99.90;;;;;;10059668;28;20049;-65
2023/03/31 21:07:38;;;;;;;0.65;0.40;;;12.00;99.90;;;;;;10064024;28;20026;-69
2023/03/31 21:12:29;;;;;;;0.52;0.40;;;11.90;99.90;;;;;;10064378;28;20090;-63
2023/03/31 21:17:19;;;;;;;0.60;0.50;;;11.80;99.90;;;;;;10064902;28;20512;-63
2023/03/31 21:22:10;;;;;;;0.50;0.50;;;11.70;99.90;;;;;;10063994;28;20045;-62
2023/03/31 21:27:00;;;;;;;1.45;0.30;;;11.60;99.90;;;;;;10063656;28;20045;-65
2023/03/31 21:31:51;;;;;;;1.25;0.40;;;11.50;99.90;;;;;;10063759;28;20438;-68
2023/03/31 21:36:42;;;;;;;1.10;0.25;;;11.30;99.90;;;;;;10063458;28;20075;-63
2023/03/31 21:41:32;;;;;;;1.80;0.55;;;11.20;99.90;;;;;;10063214;28;20169;-61
2023/03/31 21:46:26;;;;;;;1.45;0.47;;;11.20;99.90;;;;;;10063315;28;20444;-64
2023/03/31 21:51:20;;;;;;;1.45;0.57;;;11.20;99.90;;;;;;10063357;28;20040;-63
2023/03/31 21:56:11;;;;;;;1.85;0.73;;;11.20;99.90;;;;;;10062709;28;20017;-63
2023/03/31 22:01:03;;;;;;;1.55;0.75;;;11.10;99.90;;;;;;10050323;28;20415;-62
2023/03/31 22:05:55;;;;;;;4.88;0.70;;;11.10;99.90;;;;;;10065368;28;20125;-62
2023/03/31 22:10:51;;;;;;;1.20;0.50;;;11.10;99.90;;;;;;10062041;28;20107;-62
2023/03/31 22:15:43;;;;;;;0.95;0.40;;;11.10;99.90;;;;;;10062648;28;20029;-61
2023/03/31 22:20:33;;;;;;;0.50;0.38;;;11.10;99.90;;;;;;10061145;28;20042;-64
2023/03/31 22:25:24;;;;;;;1.63;0.45;;;11.10;99.90;;;;;;10060022;28;20099;-63
2023/03/31 22:30:15;;;;;;;0.82;0.43;;;11.30;99.90;;;;;;10061127;28;20568;-65
2023/03/31 22:35:06;;;;;;;1.83;0.82;;;11.30;99.90;;;;;;10060928;28;20056;-62
2023/03/31 22:39:56;;;;;;;1.75;0.47;;;11.20;99.90;;;;;;10061016;28;20112;-62
2023/03/31 22:44:47;;;;;;;0.73;0.47;;;11.20;99.90;;;;;;10059578;28;20502;-64
2023/03/31 22:49:38;;;;;;;1.15;0.70;;;11.20;99.90;;;;;;10060072;28;20044;-62
2023/03/31 22:54:28;;;;;;;1.05;0.45;;;11.30;99.90;;;;;;10060523;28;20488;-60
2023/03/31 22:59:19;;;;;;;1.63;0.75;;;11.20;99.90;;;;;;10049480;28;20483;-64
2023/03/31 23:04:10;;;;;;;5.40;0.52;;;11.30;99.90;;;;;;10075039;28;20076;-65
2023/03/31 23:09:01;;;;;;;2.70;0.98;;;11.40;99.90;;;;;;10065180;28;20033;-64
2023/03/31 23:13:52;;;;;;;0.75;0.40;;;11.40;99.90;;;;;;10059347;28;20027;-60
2023/03/31 23:18:45;;;;;;;2.10;0.68;;;11.40;99.90;;;;;;10059716;28;20040;-60
2023/03/31 23:23:35;;;;;;;2.28;0.60;;;11.50;99.90;;;;;;10057976;28;20033;-62
2023/03/31 23:28:26;;;;;;;3.38;0.57;;;11.50;99.90;;;;;;10059880;28;20519;-62
2023/03/31 23:33:17;;;;;;;1.58;0.88;;;11.60;99.90;;;;;;10055062;28;20384;-61
2023/03/31 23:38:07;;;;;;;0.98;0.50;;;11.60;99.90;;;;;;10058952;28;20476;-62
2023/03/31 23:42:58;;;;;;;1.98;1.10;;;11.60;99.90;;;;;;10060631;28;20037;-61
2023/03/31 23:47:49;;;;;;;1.55;0.43;;;11.60;99.90;;;;;;10059578;28;20026;-62
2023/03/31 23:52:39;;;;;;;1.00;0.45;;;11.60;99.90;;;;;;10068243;28;20040;-61
2023/03/31 23:57:30;;;;;;;4.50;0.80;;;11.60;99.90;;;;;;10058891;28;20464;-60
